Rosaria Lauro — IXXO — position and weather

sailwx.info

Track history (hours):
 
Tides and Currents Weather Stations Pressure Air Temp Water Temp Dewpoint Dewpoint Depression Visibility Wind Speed Wind Dir Waves Ship Positions

Rosaria Lauro

Last reported at 2016-Jul-27 15:22 UTC. Time now 2016-Jul-27 23:07 UTC.
Position N 40°50' E 014°16'.

Length 40 m; draft 1.1 m.

Type: Passenger vessel. MMSI: 247055900.

Date/timePositionNaut miles runAvg speedWind from/ knotsBaromVisibWave heightAir tempDewpointWater temp
2016-Jul-27 15:22N 40°50' E 014°16'2 0.6
2016-Jul-27 11:33N 40°50' E 014°13'  
2016-Jul-24 16:33N 40°47' E 014°10'3 3.3
2016-Jul-24 15:33N 40°48' E 014°14'1412.2
2016-Jul-24 14:25N 40°45' E 013°56'0 0.0
2016-Jul-24 12:06N 40°45' E 013°56'610.8
2016-Jul-24 11:33N 40°45' E 014°04'1110.7
2016-Jul-24 10:33N 40°50' E 014°17'1615.1
2016-Jul-24 09:28N 40°45' E 013°56'1 0.6
2016-Jul-24 08:18N 40°45' E 013°57'12 7.0
2016-Jul-24 06:33N 40°48' E 014°13'13 6.2
2016-Jul-24 04:28N 40°45' E 013°56'0 0.0
2016-Jul-23 19:20N 40°45' E 013°56'1618.5
2016-Jul-23 18:29N 40°49' E 014°16'9 9.3
2016-Jul-23 17:33N 40°45' E 014°06'1 1.3
2016-Jul-23 16:33N 40°46' E 014°07'8 8.1
2016-Jul-23 15:33N 40°50' E 014°16'1615.0
2016-Jul-23 14:29N 40°45' E 013°56'1515.2
2016-Jul-23 13:28N 40°50' E 014°15'2 2.5
2016-Jul-23 12:33N 40°49' E 014°13'1010.0
2016-Jul-23 11:33N 40°44' E 014°01'1212.0
2016-Jul-23 10:33N 40°50' E 014°15'1616.5
2016-Jul-23 09:33N 40°46' E 013°55'4 3.9
2016-Jul-23 08:33N 40°44' E 013°59'1411.8
2016-Jul-23 07:21N 40°49' E 014°17'1619.4
2016-Jul-23 06:30N 40°45' E 013°56'5 0.4
2016-Jul-22 16:33N 40°47' E 014°02'1111.3
2016-Jul-22 15:33N 40°50' E 014°17'1614.8
2016-Jul-22 14:28N 40°45' E 013°56'14 7.0
2016-Jul-22 12:33N 40°48' E 014°14'9 9.3
2016-Jul-22 11:33N 40°46' E 014°02'1210.9
2016-Jul-22 10:27N 40°49' E 014°17'1617.4
2016-Jul-22 09:31N 40°45' E 013°56'0 0.0
2016-Jul-22 08:30N 40°45' E 013°56'5 1.5
2016-Jul-22 05:33N 40°46' E 014°02'8 7.5
2016-Jul-22 04:28N 40°44' E 013°52'1 0.0
2016-Jul-21 17:28N 40°45' E 013°52'1 0.8
2016-Jul-21 16:33N 40°46' E 013°52'1816.8
2016-Jul-21 15:27N 40°50' E 014°15'1918.7
2016-Jul-21 14:26N 40°44' E 013°52'4 3.9
2016-Jul-21 13:30N 40°45' E 013°56'1513.0
2016-Jul-21 12:18N 40°50' E 014°15'2 1.2
2016-Jul-21 10:33N 40°48' E 014°14'1413.8
2016-Jul-21 09:33N 40°45' E 013°57'0 0.4
2016-Jul-21 08:31N 40°45' E 013°56'7 2.2
2016-Jul-21 05:33N 40°46' E 014°05'10 9.4
2016-Jul-21 04:28N 40°44' E 013°52'0 0.0
2016-Jul-20 18:33N 40°44' E 013°52'0 0.0
2016-Jul-20 17:26N 40°44' E 013°52'0 0.2
2016-Jul-20 16:33N 40°45' E 013°52'20 8.7
2016-Jul-20 14:17N 40°49' E 014°17'2 0.7
2016-Jul-20 11:14N 40°49' E 014°14'6 8.4
2016-Jul-20 10:33N 40°43' E 014°14'17 0.4
2016-Jul-18 17:13N 40°44' E 013°52'2 3.2
2016-Jul-18 16:33N 40°46' E 013°54'16 2.3
2016-Jul-18 09:28N 40°48' E 014°15'2 2.1
2016-Jul-18 08:32N 40°49' E 014°17'1616.8
2016-Jul-18 07:33N 40°45' E 013°56'0 0.1
2016-Jul-18 06:30N 40°45' E 013°56'0 0.1
2016-Jul-18 04:33N 40°45' E 013°57'0 0.0
2016-Jul-17 18:30N 40°45' E 013°56'1611.3
2016-Jul-17 17:05N 40°50' E 014°16'1222.2
2016-Jul-17 16:33N 40°44' E 014°03'5 4.6
2016-Jul-17 15:32N 40°45' E 013°57'  
Track history (hours):
 
Tides and Currents Weather Stations Pressure Air Temp Water Temp Dewpoint Dewpoint Depression Visibility Wind Speed Wind Dir Waves Ship Positions

Rosaria Lauro

Last reported at 2016-Jul-27 15:22 UTC. Time now 2016-Jul-27 23:07 UTC.
Position N 40°50' E 014°16'.

Length 40 m; draft 1.1 m.

Type: Passenger vessel. MMSI: 247055900.

Date/timePositionNaut miles runAvg speedWind from/ knotsBaromVisibWave heightAir tempDewpointWater temp
2016-Jul-27 15:22N 40°50' E 014°16'2 0.6
2016-Jul-27 11:33N 40°50' E 014°13'  
2016-Jul-24 16:33N 40°47' E 014°10'3 3.3
2016-Jul-24 15:33N 40°48' E 014°14'1412.2
2016-Jul-24 14:25N 40°45' E 013°56'0 0.0
2016-Jul-24 12:06N 40°45' E 013°56'610.8
2016-Jul-24 11:33N 40°45' E 014°04'1110.7
2016-Jul-24 10:33N 40°50' E 014°17'1615.1
2016-Jul-24 09:28N 40°45' E 013°56'1 0.6
2016-Jul-24 08:18N 40°45' E 013°57'12 7.0
2016-Jul-24 06:33N 40°48' E 014°13'13 6.2
2016-Jul-24 04:28N 40°45' E 013°56'0 0.0
2016-Jul-23 19:20N 40°45' E 013°56'1618.5
2016-Jul-23 18:29N 40°49' E 014°16'9 9.3
2016-Jul-23 17:33N 40°45' E 014°06'1 1.3
2016-Jul-23 16:33N 40°46' E 014°07'8 8.1
2016-Jul-23 15:33N 40°50' E 014°16'1615.0
2016-Jul-23 14:29N 40°45' E 013°56'1515.2
2016-Jul-23 13:28N 40°50' E 014°15'2 2.5
2016-Jul-23 12:33N 40°49' E 014°13'1010.0
2016-Jul-23 11:33N 40°44' E 014°01'1212.0
2016-Jul-23 10:33N 40°50' E 014°15'1616.5
2016-Jul-23 09:33N 40°46' E 013°55'4 3.9
2016-Jul-23 08:33N 40°44' E 013°59'1411.8
2016-Jul-23 07:21N 40°49' E 014°17'1619.4
2016-Jul-23 06:30N 40°45' E 013°56'5 0.4
2016-Jul-22 16:33N 40°47' E 014°02'1111.3
2016-Jul-22 15:33N 40°50' E 014°17'1614.8
2016-Jul-22 14:28N 40°45' E 013°56'14 7.0
2016-Jul-22 12:33N 40°48' E 014°14'9 9.3
2016-Jul-22 11:33N 40°46' E 014°02'1210.9
2016-Jul-22 10:27N 40°49' E 014°17'1617.4
2016-Jul-22 09:31N 40°45' E 013°56'0 0.0
2016-Jul-22 08:30N 40°45' E 013°56'5 1.5
2016-Jul-22 05:33N 40°46' E 014°02'8 7.5
2016-Jul-22 04:28N 40°44' E 013°52'1 0.0
2016-Jul-21 17:28N 40°45' E 013°52'1 0.8
2016-Jul-21 16:33N 40°46' E 013°52'1816.8
2016-Jul-21 15:27N 40°50' E 014°15'1918.7
2016-Jul-21 14:26N 40°44' E 013°52'4 3.9
2016-Jul-21 13:30N 40°45' E 013°56'1513.0
2016-Jul-21 12:18N 40°50' E 014°15'2 1.2
2016-Jul-21 10:33N 40°48' E 014°14'1413.8
2016-Jul-21 09:33N 40°45' E 013°57'0 0.4
2016-Jul-21 08:31N 40°45' E 013°56'7 2.2
2016-Jul-21 05:33N 40°46' E 014°05'10 9.4
2016-Jul-21 04:28N 40°44' E 013°52'0 0.0
2016-Jul-20 18:33N 40°44' E 013°52'0 0.0
2016-Jul-20 17:26N 40°44' E 013°52'0 0.2
2016-Jul-20 16:33N 40°45' E 013°52'20 8.7
2016-Jul-20 14:17N 40°49' E 014°17'2 0.7
2016-Jul-20 11:14N 40°49' E 014°14'6 8.4
2016-Jul-20 10:33N 40°43' E 014°14'17 0.4
2016-Jul-18 17:13N 40°44' E 013°52'2 3.2
2016-Jul-18 16:33N 40°46' E 013°54'16 2.3
2016-Jul-18 09:28N 40°48' E 014°15'2 2.1
2016-Jul-18 08:32N 40°49' E 014°17'1616.8
2016-Jul-18 07:33N 40°45' E 013°56'0 0.1
2016-Jul-18 06:30N 40°45' E 013°56'0 0.1
2016-Jul-18 04:33N 40°45' E 013°57'0 0.0
2016-Jul-17 18:30N 40°45' E 013°56'1611.3
2016-Jul-17 17:05N 40°50' E 014°16'1222.2
2016-Jul-17 16:33N 40°44' E 014°03'5 4.6
2016-Jul-17 15:32N 40°45' E 013°57'  

Dump ship's entire track history